^^
B2 Weather Station Historical Data
Daily Summary for July 10, 2019 Units:  English    Metric   Both
Daily Weekly Monthly Yearly Custom
  High: Low: Average:
Temperature: 94.5 °F 72.6 °F 83.5 °F
Dew Point: 79.3 °F 64.3 °F 72.4 °F
Humidity: 95% 49% 71%
Wind Speed: 12mph 0mph 5mph
Wind Gust: 7.8mph - -
Wind- - West
Pressure: 29.92 in 29.81 in -
Precipitation: 0.22 in    
Historical Graphs
 
 
Tabular Data for July 10, 2019
Time Temperature Dew Point Pressure Wind Wind Speed Wind Gust Humidity Rainfall Rate (Hourly) solar
00:04 74.5 °F 69 °F 29.92 in Calm     83% 0 in 0.00 W/m2
00:09 74.4 °F 68.9 °F 29.92 in Calm     83% 0 in 0.00 W/m2
00:14 74.3 °F 69.1 °F 29.92 in Calm     84% 0 in 0.00 W/m2
00:19 74.1 °F 69 °F 29.92 in Calm     84% 0 in 0.00 W/m2
00:24 74 °F 69.2 °F 29.92 in Calm     85% 0 in 0.00 W/m2
00:29 73.9 °F 69.1 °F 29.92 in Calm     85% 0 in 0.00 W/m2
00:34 73.7 °F 68.9 °F 29.92 in Calm     85% 0 in 0.00 W/m2
00:39 73.5 °F 69.1 °F 29.92 in Calm     86% 0 in 0.00 W/m2
00:44 73.5 °F 69.1 °F 29.92 in Calm     86% 0 in 0.00 W/m2
00:49 73.4 °F 69 °F 29.92 in Calm     86% 0 in 0.00 W/m2
00:54 73.3 °F 68.9 °F 29.92 in Calm     86% 0 in 0.00 W/m2
00:59 73.2 °F 68.8 °F 29.92 in Calm     86% 0 in 0.00 W/m2
01:04 73.3 °F 68.9 °F 29.91 in Calm     86% 0 in 0.00 W/m2
01:09 73.3 °F 68.9 °F 29.92 in Calm     86% 0 in 0.00 W/m2
01:14 73.4 °F 69 °F 29.92 in Calm     86% 0 in 0.00 W/m2
01:19 73.5 °F 69.1 °F 29.92 in Calm     86% 0 in 0.00 W/m2
01:24 73.6 °F 68.8 °F 29.92 in Calm     85% 0 in 0.00 W/m2
01:29 73.6 °F 68.8 °F 29.92 in Calm     85% 0 in 0.00 W/m2
01:34 73.5 °F 68.7 °F 29.92 in Calm     85% 0 in 0.00 W/m2
01:39 73.4 °F 69 °F 29.91 in Calm     86% 0 in 0.00 W/m2
01:44 73.3 °F 68.9 °F 29.91 in Calm     86% 0 in 0.00 W/m2
01:49 73.2 °F 69.1 °F 29.91 in Calm     87% 0 in 0.00 W/m2
01:54 73.2 °F 69.1 °F 29.91 in Calm     87% 0 in 0.00 W/m2
01:59 73.2 °F 69.1 °F 29.91 in Calm     87% 0 in 0.00 W/m2
02:04 73.1 °F 69 °F 29.91 in Calm     87% 0 in 0.00 W/m2
02:09 73.2 °F 69.1 °F 29.91 in Calm     87% 0 in 0.00 W/m2
02:14 73.2 °F 69.1 °F 29.91 in Calm     87% 0 in 0.00 W/m2
02:19 73.2 °F 69.1 °F 29.91 in Calm     87% 0 in 0.00 W/m2
02:24 73.3 °F 69.2 °F 29.91 in Calm     87% 0 in 0.00 W/m2
02:29 73.3 °F 69.5 °F 29.91 in Calm     88% 0 in 0.00 W/m2
02:34 73.4 °F 69.3 °F 29.91 in SSW 3.5 mph 0.2 mph 87% 0 in 0.00 W/m2
02:39 73.7 °F 69.2 °F 29.91 in SSW 3.5 mph 0.5 mph 86% 0 in 0.00 W/m2
02:44 74.3 °F 69.8 °F 29.91 in South 5.8 mph 3.5 mph 86% 0 in 0.00 W/m2
02:49 74.7 °F 70.2 °F 29.91 in South 4.6 mph 2.6 mph 86% 0 in 0.00 W/m2
02:54 74.7 °F 70.2 °F 29.90 in SSW 4.6 mph 0.8 mph 86% 0 in 0.00 W/m2
02:59 74.7 °F 70.2 °F 29.90 in South 2 mph 0.1 mph 86% 0 in 0.00 W/m2
03:04 74.6 °F 70.1 °F 29.90 in South 1.2 mph   86% 0 in 0.00 W/m2
03:09 74.6 °F 70.5 °F 29.90 in SSW 1.2 mph 1.4 mph 87% 0 in 0.00 W/m2
03:14 74.6 °F 70.5 °F 29.90 in Calm   1 mph 87% 0 in 0.00 W/m2
03:19 74.7 °F 70.6 °F 29.91 in SW 6.9 mph 3.5 mph 87% 0 in 0.00 W/m2
03:24 75.1 °F 71 °F 29.91 in South 9.2 mph 4.9 mph 87% 0 in 0.00 W/m2
03:29 75 °F 71.5 °F 29.90 in South 11.5 mph 5.9 mph 89% 0.06 in 0.00 W/m2
03:34 74.6 °F 71.8 °F 29.90 in SSW 4.6 mph 0.3 mph 91% 0.18 in 0.00 W/m2
03:39 74.2 °F 71.7 °F 29.90 in Calm   0.1 mph 92% 0.22 in 0.00 W/m2
03:44 73.9 °F 71.7 °F 29.90 in Calm     93% 0.22 in 0.00 W/m2
03:49 73.9 °F 71.7 °F 29.92 in NNW 3 mph 3.1 mph 93% 0.22 in 0.00 W/m2
03:54 73.9 °F 72.1 °F 29.92 in West 4.6 mph 0.2 mph 94% 0.22 in 0.00 W/m2
03:59 73.8 °F 72 °F 29.92 in Calm     94% 0.22 in 0.00 W/m2
04:04 73.7 °F 71.9 °F 29.92 in Calm     94% 0.22 in 0.00 W/m2
04:09 73.6 °F 71.8 °F 29.91 in Calm     94% 0.22 in 0.00 W/m2
04:14 73.4 °F 71.6 °F 29.91 in Calm     94% 0.22 in 0.00 W/m2
04:19 73.1 °F 71.3 °F 29.91 in Calm     94% 0.22 in 0.00 W/m2
04:24 72.9 °F 71.1 °F 29.91 in Calm     94% 0.22 in 0.00 W/m2
04:29 72.7 °F 70.9 °F 29.91 in Calm     94% 0.16 in 0.00 W/m2
04:34 72.6 °F 70.8 °F 29.91 in Calm     94% 0.04 in 0.00 W/m2
04:39 72.6 °F 70.8 °F 29.91 in Calm     94% 0 in 0.00 W/m2
04:44 72.7 °F 71.2 °F 29.91 in Calm     95% 0 in 0.00 W/m2
04:49 72.9 °F 71.4 °F 29.91 in Calm     95% 0 in 0.00 W/m2
04:54 73 °F 71.5 °F 29.91 in SSE 3.5 mph 0.1 mph 95% 0 in 0.00 W/m2
04:59 73 °F 71.5 °F 29.91 in SSE 3.5 mph 1 mph 95% 0 in 0.00 W/m2
05:04 73 °F 71.5 °F 29.90 in SSE 6 mph 1.2 mph 95% 0 in 0.00 W/m2
05:09 72.9 °F 71.4 °F 29.90 in Calm     95% 0 in 0.00 W/m2
05:14 72.8 °F 71.3 °F 29.90 in Calm   0.4 mph 95% 0 in 0.00 W/m2
05:19 72.9 °F 71.4 °F 29.90 in Calm     95% 0 in 0.00 W/m2
05:24 72.9 °F 71.4 °F 29.90 in Calm     95% 0 in 0.00 W/m2
05:29 72.9 °F 71.4 °F 29.90 in Calm     95% 0 in 0.00 W/m2
05:34 72.9 °F 71.4 °F 29.89 in Calm     95% 0 in 0.00 W/m2
05:39 72.9 °F 71.4 °F 29.90 in Calm     95% 0 in 0.00 W/m2
05:44 72.9 °F 71.4 °F 29.90 in Calm     95% 0 in 0.00 W/m2
05:49 72.9 °F 71.4 °F 29.90 in Calm     95% 0 in 5.00 W/m2
05:54 72.9 °F 71.4 °F 29.90 in Calm     95% 0 in 7.00 W/m2
05:59 72.9 °F 71.4 °F 29.90 in Calm     95% 0 in 9.00 W/m2
06:04 72.9 °F 71.4 °F 29.90 in Calm     95% 0 in 11.00 W/m2
06:09 73 °F 71.5 °F 29.90 in Calm     95% 0 in 11.00 W/m2
06:14 73 °F 71.5 °F 29.90 in South 1.2 mph   95% 0 in 12.00 W/m2
06:19 73.1 °F 71.6 °F 29.90 in Calm     95% 0 in 14.00 W/m2
06:24 73.2 °F 71.7 °F 29.90 in SSW 2.3 mph 0.9 mph 95% 0 in 18.00 W/m2
06:29 73.3 °F 71.8 °F 29.90 in South 2.3 mph 0.7 mph 95% 0 in 25.00 W/m2
06:34 73.5 °F 72 °F 29.90 in Calm     95% 0 in 77.00 W/m2
06:39 73.8 °F 72.3 °F 29.90 in Calm   0.4 mph 95% 0 in 91.00 W/m2
06:44 74.2 °F 72.7 °F 29.90 in South 3.5 mph 1.7 mph 95% 0 in 104.00 W/m2
06:49 74.5 °F 73 °F 29.90 in SSW 3.5 mph   95% 0 in 118.00 W/m2
06:54 74.7 °F 73.2 °F 29.90 in SSW 1.2 mph 0.1 mph 95% 0 in 137.00 W/m2
06:59 74.9 °F 73.4 °F 29.90 in SW 3.5 mph   95% 0 in 156.00 W/m2
07:04 75.1 °F 73.6 °F 29.90 in SSW 3.5 mph   95% 0 in 172.00 W/m2
07:09 75.3 °F 73.8 °F 29.90 in SSW 4.6 mph 3 mph 95% 0 in 183.00 W/m2
07:14 75.7 °F 74.2 °F 29.90 in SSW 4.6 mph 0.4 mph 95% 0 in 209.00 W/m2
07:19 75.9 °F 74 °F 29.90 in SW 6.9 mph 1.9 mph 94% 0 in 225.00 W/m2
07:24 76.2 °F 74.3 °F 29.90 in South 3.5 mph 0.4 mph 94% 0 in 239.00 W/m2
07:29 76.5 °F 74.3 °F 29.90 in SSW 6.9 mph 3.3 mph 93% 0 in 257.00 W/m2
07:34 76.7 °F 74.5 °F 29.90 in SSW 6.9 mph 2.7 mph 93% 0 in 271.00 W/m2
07:39 77.1 °F 74.6 °F 29.90 in SW 6.9 mph 2.5 mph 92% 0 in 285.00 W/m2
07:44 77.5 °F 75 °F 29.90 in SSW 3.5 mph   92% 0 in 302.00 W/m2
07:49 77.8 °F 75.3 °F 29.90 in South 5.8 mph 3.6 mph 92% 0 in 315.00 W/m2
07:54 78 °F 75.2 °F 29.90 in SW 3.5 mph 1.3 mph 91% 0 in 330.00 W/m2
07:59 78.4 °F 75.2 °F 29.90 in SW 9 mph 4.6 mph 90% 0 in 346.00 W/m2
08:04 78.7 °F 75.5 °F 29.90 in SSW 10.4 mph 2.3 mph 90% 0 in 364.00 W/m2
08:09 79 °F 75.8 °F 29.90 in SW 3.5 mph 1.4 mph 90% 0 in 381.00 W/m2
08:14 79.6 °F 76.4 °F 29.90 in SW 4 mph 3.2 mph 90% 0 in 396.00 W/m2
08:19 79.9 °F 76.4 °F 29.90 in SSW 8.1 mph 3.1 mph 89% 0 in 413.00 W/m2
08:24 80.4 °F 76.9 °F 29.90 in WSW 8.1 mph 2.7 mph 89% 0 in 424.00 W/m2
08:29 80.8 °F 76.9 °F 29.90 in SW 9.2 mph 3.4 mph 88% 0 in 439.00 W/m2
08:34 81 °F 77.1 °F 29.90 in SW 4.6 mph 1.1 mph 88% 0 in 448.00 W/m2
08:39 81.4 °F 77.5 °F 29.90 in WSW 6 mph 3.3 mph 88% 0 in 439.00 W/m2
08:44 81.8 °F 77.5 °F 29.90 in SSW 4.6 mph 1.8 mph 87% 0 in 432.00 W/m2
08:49 82.2 °F 77.9 °F 29.90 in WSW 5 mph 1.3 mph 87% 0 in 418.00 W/m2
08:54 82.5 °F 77.9 °F 29.90 in SW 6.9 mph 1.3 mph 86% 0 in 417.00 W/m2
08:59 82.9 °F 78.3 °F 29.90 in WSW 6.9 mph 4.4 mph 86% 0 in 417.00 W/m2
09:04 83.2 °F 78.2 °F 29.90 in WSW 4.6 mph 2.6 mph 85% 0 in 434.00 W/m2
09:09 83.5 °F 78.2 °F 29.90 in SW 3.5 mph 2.6 mph 84% 0 in 461.00 W/m2
09:14 83.7 °F 78.3 °F 29.91 in Calm     84% 0 in 512.00 W/m2
09:19 84.1 °F 78.4 °F 29.91 in SSW 5.8 mph   83% 0 in 548.00 W/m2
09:24 84.2 °F 78.1 °F 29.91 in WSW 8.1 mph 5.3 mph 82% 0 in 561.00 W/m2
09:29 84.4 °F 78.3 °F 29.91 in SW 5.8 mph 3.3 mph 82% 0 in 559.00 W/m2
09:34 84.4 °F 77.9 °F 29.91 in SW 3.5 mph 0.1 mph 81% 0 in 557.00 W/m2
09:39 84.9 °F 78.4 °F 29.91 in North 6.9 mph 0.1 mph 81% 0 in 550.00 W/m2
09:44 85.2 °F 78.7 °F 29.91 in SW 5.8 mph   81% 0 in 540.00 W/m2
09:49 85.5 °F 79 °F 29.91 in SW 4.6 mph 2.9 mph 81% 0 in 534.00 W/m2
09:54 85.7 °F 78.8 °F 29.91 in Calm     80% 0 in 534.00 W/m2
09:59 86.6 °F 79.3 °F 29.91 in SSW 5.8 mph 1.1 mph 79% 0 in 533.00 W/m2
10:04 86.8 °F 78.7 °F 29.91 in Calm     77% 0 in 543.00 W/m2
10:09 86.8 °F 77.1 °F 29.91 in SW 8.1 mph 7 mph 73% 0 in 561.00 W/m2
10:14 87 °F 78.5 °F 29.91 in WSW 7 mph 1.9 mph 76% 0 in 584.00 W/m2
10:19 87.3 °F 78.8 °F 29.91 in West 4 mph 2.8 mph 76% 0 in 619.00 W/m2
10:24 87.5 °F 78.2 °F 29.91 in West 6.9 mph 2.2 mph 74% 0 in 657.00 W/m2
10:29 87.7 °F 78.4 °F 29.91 in South 3.5 mph 1.2 mph 74% 0 in 696.00 W/m2
10:34 88.1 °F 79.2 °F 29.91 in SW 2.3 mph 0.6 mph 75% 0 in 810.00 W/m2
10:39 88 °F 78.7 °F 29.90 in SSW 5.8 mph 3.6 mph 74% 0 in 202.00 W/m2
10:44 88 °F 78.7 °F 29.91 in West 5 mph 0.9 mph 74% 0 in 802.00 W/m2
10:49 88.1 °F 77.1 °F 29.91 in WSW 6.9 mph 1.7 mph 70% 0 in 192.00 W/m2
10:54 88.2 °F 78.4 °F 29.90 in WSW 5.8 mph 2.5 mph 73% 0 in 844.00 W/m2
10:59 88.2 °F 77.2 °F 29.90 in SW 7 mph 4 mph 70% 0 in 861.00 W/m2
11:04 88.6 °F 78 °F 29.90 in SW 3.5 mph 4 mph 71% 0 in 837.00 W/m2
11:09 88.9 °F 77 °F 29.90 in WSW 8.1 mph 0.6 mph 68% 0 in 874.00 W/m2
11:14 89.3 °F 78.2 °F 29.89 in WSW 5 mph 1.4 mph 70% 0 in 949.00 W/m2
11:19 89.5 °F 76.2 °F 29.90 in NNW 10.4 mph 5.8 mph 65% 0 in 281.00 W/m2
11:24 89.3 °F 76.4 °F 29.90 in West 5.8 mph   66% 0 in 193.00 W/m2
11:29 89.6 °F 77.2 °F 29.89 in SW 12 mph 5.7 mph 67% 0 in 923.00 W/m2
11:34 89.7 °F 78.2 °F 29.89 in SW 4 mph 1.6 mph 69% 0 in 925.00 W/m2
11:39 90 °F 77.1 °F 29.89 in NW 8.1 mph 4.8 mph 66% 0 in 977.00 W/m2
11:44 89.6 °F 77.2 °F 29.89 in Calm     67% 0 in 1004.00 W/m2
11:49 89.7 °F 76.8 °F 29.89 in WNW 5.8 mph 2.7 mph 66% 0 in 1004.00 W/m2
11:54 89.8 °F 76.5 °F 29.89 in WSW 9.2 mph 1.2 mph 65% 0 in 171.00 W/m2
11:59 89.9 °F 77.5 °F 29.89 in WSW 3.5 mph 3.3 mph 67% 0 in 898.00 W/m2
12:04 90.1 °F 76.7 °F 29.89 in WSW 8 mph 5.6 mph 65% 0 in 954.00 W/m2
12:09 90.4 °F 77 °F 29.89 in Calm     65% 0 in 944.00 W/m2
12:14 91 °F 78.1 °F 29.89 in West 5.8 mph 4 mph 66% 0 in 998.00 W/m2
12:19 90.9 °F 77 °F 29.88 in West 8.1 mph 4.9 mph 64% 0 in 958.00 W/m2
12:24 90.9 °F 76.6 °F 29.88 in WSW 9 mph 4.8 mph 63% 0 in 953.00 W/m2
12:29 90.8 °F 76.5 °F 29.88 in West 11 mph 7 mph 63% 0 in 928.00 W/m2
12:34 90.9 °F 76.6 °F 29.88 in WNW 11 mph 7.6 mph 63% 0 in 977.00 W/m2
12:39 91 °F 76.7 °F 29.88 in North 6.9 mph 3.8 mph 63% 0 in 949.00 W/m2
12:44 91.3 °F 76.9 °F 29.88 in WNW 9.2 mph 3.3 mph 63% 0 in 946.00 W/m2
12:49 91.5 °F 76.1 °F 29.87 in West 6.9 mph 6.3 mph 61% 0 in 905.00 W/m2
12:54 91.4 °F 76.1 °F 29.86 in North 7 mph 3.4 mph 61% 0 in 909.00 W/m2
12:59 91.4 °F 76.5 °F 29.87 in WSW 9.2 mph 4.8 mph 62% 0 in 926.00 W/m2
13:04 91.7 °F 76.3 °F 29.86 in SW 9.2 mph 3.2 mph 61% 0 in 912.00 W/m2
13:09 92 °F 77.1 °F 29.86 in SW 8.1 mph 2.3 mph 62% 0 in 921.00 W/m2
13:14 92.1 °F 77.7 °F 29.86 in West 9.2 mph 1.2 mph 63% 0 in 962.00 W/m2
13:19 92 °F 76.1 °F 29.86 in West 3.5 mph 2 mph 60% 0 in 155.00 W/m2
13:24 91.9 °F 77 °F 29.86 in WSW 9.2 mph 4.7 mph 62% 0 in 940.00 W/m2
13:29 92.1 °F 76.2 °F 29.86 in West 8 mph 5 mph 60% 0 in 246.00 W/m2
13:34 92 °F 77.1 °F 29.86 in West 4.6 mph 1.8 mph 62% 0 in 965.00 W/m2
13:39 92.1 °F 76.7 °F 29.86 in West 8.1 mph 2.4 mph 61% 0 in 151.00 W/m2
13:44 92.4 °F 76.5 °F 29.86 in WNW 5.8 mph 4.6 mph 60% 0 in 925.00 W/m2
13:49 92.6 °F 76.2 °F 29.85 in South 10.4 mph 3.9 mph 59% 0 in 200.00 W/m2
13:54 92.2 °F 74.8 °F 29.85 in West 5.8 mph 5.2 mph 57% 0 in 241.00 W/m2
13:59 92.2 °F 75.3 °F 29.85 in WNW 6 mph 4.2 mph 58% 0 in 939.00 W/m2
14:04 92.6 °F 74.1 °F 29.85 in West 9.2 mph 3.7 mph 55% 0 in 958.00 W/m2
14:09 92.6 °F 74.1 °F 29.85 in WSW 6.9 mph 4.6 mph 55% 0 in 246.00 W/m2
14:14 92.3 °F 75.4 °F 29.85 in West 5.8 mph 1.2 mph 58% 0 in 244.00 W/m2
14:19 92.5 °F 74 °F 29.85 in West 6.9 mph 2.9 mph 55% 0 in 243.00 W/m2
14:24 92.7 °F 74.2 °F 29.85 in WNW 10.4 mph 6.5 mph 55% 0 in 953.00 W/m2
14:29 93.1 °F 72.9 °F 29.85 in SSW 8.1 mph 6.1 mph 52% 0 in 940.00 W/m2
14:34 93.6 °F 73.3 °F 29.85 in SW 7 mph 5.8 mph 52% 0 in 1000.00 W/m2
14:39 93.7 °F 74 °F 29.85 in WNW 9.2 mph 4.2 mph 53% 0 in 290.00 W/m2
14:44 93.5 °F 73.8 °F 29.85 in SW 9.2 mph 5.2 mph 53% 0 in 972.00 W/m2
14:49 93.4 °F 73.1 °F 29.85 in SW 5.8 mph 5.8 mph 52% 0 in 930.00 W/m2
14:54 93.4 °F 73.1 °F 29.85 in SW 10.4 mph 4.3 mph 52% 0 in 193.00 W/m2
14:59 92.9 °F 74.4 °F 29.85 in WNW 6.9 mph 4.6 mph 55% 0 in 842.00 W/m2
15:04 93.4 °F 73.7 °F 29.84 in WSW 9.2 mph 4.7 mph 53% 0 in 817.00 W/m2
15:09 93.9 °F 74.7 °F 29.84 in WNW 6.9 mph 4.1 mph 54% 0 in 814.00 W/m2
15:14 93.9 °F 74.2 °F 29.84 in SW 9.2 mph 7.7 mph 53% 0 in 772.00 W/m2
15:19 93.8 °F 74.6 °F 29.84 in WSW 6 mph 4 mph 54% 0 in 768.00 W/m2
15:24 93.8 °F 74.1 °F 29.84 in WSW 10.4 mph 3.4 mph 53% 0 in 765.00 W/m2
15:29 93.8 °F 74.6 °F 29.84 in SW 11.5 mph 3.6 mph 54% 0 in 749.00 W/m2
15:34 94.1 °F 74.9 °F 29.84 in WSW 8.1 mph 4.2 mph 54% 0 in 754.00 W/m2
15:39 94.2 °F 74.4 °F 29.84 in WSW 8.1 mph 4.3 mph 53% 0 in 729.00 W/m2
15:44 94.2 °F 74.4 °F 29.84 in WNW 9.2 mph 5.4 mph 53% 0 in 728.00 W/m2
15:49 94.2 °F 75.6 °F 29.84 in NW 9.2 mph 6.9 mph 55% 0 in 733.00 W/m2
15:54 94.2 °F 73.9 °F 29.84 in North 9 mph 6.4 mph 52% 0 in 137.00 W/m2
15:59 94.1 °F 75.5 °F 29.84 in WSW 5 mph 2.9 mph 55% 0 in 747.00 W/m2
16:04 94.4 °F 74.6 °F 29.84 in WNW 9.2 mph 6.2 mph 53% 0 in 707.00 W/m2
16:09 94.5 °F 74.7 °F 29.84 in NW 7 mph 4.4 mph 53% 0 in 682.00 W/m2
16:14 94.5 °F 73.6 °F 29.84 in North 4 mph 4.7 mph 51% 0 in 670.00 W/m2
16:19 94.5 °F 73.6 °F 29.84 in WSW 5.8 mph 4.1 mph 51% 0 in 652.00 W/m2
16:24 94.5 °F 73 °F 29.84 in WSW 9.2 mph 7.8 mph 50% 0 in 645.00 W/m2
16:29 94.3 °F 72.8 °F 29.84 in WSW 6.9 mph 5.7 mph 50% 0 in 631.00 W/m2
16:34 94.2 °F 73.9 °F 29.84 in WNW 8.1 mph 2.1 mph 52% 0 in 605.00 W/m2
16:39 94.3 °F 72.8 °F 29.83 in North 4.6 mph 3.1 mph 50% 0 in 591.00 W/m2
16:44 94 °F 72.5 °F 29.83 in WSW 8.1 mph 3.6 mph 50% 0 in 114.00 W/m2
16:49 93.6 °F 72.7 °F 29.83 in WNW 5.8 mph 2.1 mph 51% 0 in 589.00 W/m2
16:54 93.9 °F 73 °F 29.82 in NW 3.5 mph 2.6 mph 51% 0 in 527.00 W/m2
16:59 94.4 °F 72.9 °F 29.82 in WSW 6.9 mph 5.2 mph 50% 0 in 476.00 W/m2
17:04 94.4 °F 72.9 °F 29.82 in West 3.5 mph 2.7 mph 50% 0 in 445.00 W/m2
17:09 94.3 °F 72.8 °F 29.82 in NNW 4.6 mph 3.6 mph 50% 0 in 209.00 W/m2
17:14 93.8 °F 72.9 °F 29.82 in WSW 8.1 mph 3.9 mph 51% 0 in 404.00 W/m2
17:19 93.7 °F 73.4 °F 29.83 in WSW 6 mph 5.1 mph 52% 0 in 510.00 W/m2
17:24 93.6 °F 73.3 °F 29.82 in SW 5.8 mph 3.4 mph 52% 0 in 510.00 W/m2
17:29 93.5 °F 72.7 °F 29.82 in SW 6 mph 3.6 mph 51% 0 in 506.00 W/m2
17:34 93.7 °F 72.8 °F 29.82 in WNW 11 mph 5.1 mph 51% 0 in 441.00 W/m2
17:39 93.8 °F 73.5 °F 29.82 in WNW 7 mph 4.1 mph 52% 0 in 452.00 W/m2
17:44 93.8 °F 72.9 °F 29.83 in West 6 mph 7.1 mph 51% 0 in 422.00 W/m2
17:49 93.5 °F 71.5 °F 29.82 in NW 9.2 mph 7.1 mph 49% 0 in 155.00 W/m2
17:54 92.8 °F 72 °F 29.82 in SW 6.9 mph 3.7 mph 51% 0 in 132.00 W/m2
17:59 92.7 °F 71.9 °F 29.82 in WNW 6.9 mph 3.9 mph 51% 0 in 380.00 W/m2
18:04 93 °F 72.2 °F 29.82 in West 4.6 mph 3.9 mph 51% 0 in 364.00 W/m2
18:09 93.1 °F 72.9 °F 29.82 in WNW 5.8 mph 4.3 mph 52% 0 in 332.00 W/m2
18:14 92.7 °F 71.9 °F 29.82 in West 8.1 mph 3.9 mph 51% 0 in 322.00 W/m2
18:19 92.6 °F 72.4 °F 29.82 in WNW 6.9 mph 4.5 mph 52% 0 in 301.00 W/m2
18:24 92.6 °F 72.4 °F 29.82 in WNW 10.4 mph 4.1 mph 52% 0 in 297.00 W/m2
18:29 92.5 °F 72.3 °F 29.81 in West 10.4 mph 6.7 mph 52% 0 in 299.00 W/m2
18:34 92.4 °F 72.8 °F 29.82 in West 5 mph 2 mph 53% 0 in 281.00 W/m2
18:39 92.3 °F 72.7 °F 29.81 in West 11.5 mph 4.7 mph 53% 0 in 285.00 W/m2
18:44 92 °F 72.4 °F 29.81 in WNW 6.9 mph 3.4 mph 53% 0 in 264.00 W/m2
18:49 91.9 °F 72.9 °F 29.81 in NW 5.8 mph 2.4 mph 54% 0 in 223.00 W/m2
18:54 91.6 °F 71.5 °F 29.81 in NNW 10.4 mph 3 mph 52% 0 in 199.00 W/m2
18:59 91.4 °F 71.9 °F 29.81 in West 9.2 mph 7.4 mph 53% 0 in 171.00 W/m2
19:04 91.2 °F 72.2 °F 29.82 in NW 8.1 mph 5 mph 54% 0 in 149.00 W/m2
19:09 90.8 °F 71.9 °F 29.82 in WNW 5.8 mph 3.7 mph 54% 0 in 132.00 W/m2
19:14 90.6 °F 72.2 °F 29.82 in WNW 11.5 mph 3.3 mph 55% 0 in 118.00 W/m2
19:19 90.4 °F 72 °F 29.82 in WNW 8.1 mph 3.3 mph 55% 0 in 102.00 W/m2
19:24 90.2 °F 72.4 °F 29.82 in WNW 3.5 mph 1.3 mph 56% 0 in 88.00 W/m2
19:29 89.7 °F 71.9 °F 29.82 in WNW 5 mph 2.6 mph 56% 0 in 33.00 W/m2
19:34 89.3 °F 72.1 °F 29.82 in WNW 5 mph 2.6 mph 57% 0 in 30.00 W/m2
19:39 89 °F 72.3 °F 29.82 in WNW 3.5 mph 1.1 mph 58% 0 in 28.00 W/m2
19:44 88.7 °F 72 °F 29.82 in West 2.3 mph 0.4 mph 58% 0 in 25.00 W/m2
19:49 88.4 °F 71.7 °F 29.82 in WNW 6.9 mph 1.4 mph 58% 0 in 21.00 W/m2
19:54 88.3 °F 72.2 °F 29.82 in WNW 2.3 mph 1.4 mph 59% 0 in 19.00 W/m2
19:59 88 °F 71.4 °F 29.82 in WNW 5.8 mph 2.5 mph 58% 0 in 16.00 W/m2
20:04 87.9 °F 71.8 °F 29.82 in West 9.2 mph 2.2 mph 59% 0 in 14.00 W/m2
20:09 87.7 °F 71.6 °F 29.82 in WNW 3.5 mph 2.6 mph 59% 0 in 11.00 W/m2
20:14 87.5 °F 71.4 °F 29.82 in NW 8.1 mph 2.9 mph 59% 0 in 9.00 W/m2
20:19 87.2 °F 71.6 °F 29.82 in WNW 1.2 mph 0.7 mph 60% 0 in 5.00 W/m2
20:24 87 °F 71.4 °F 29.82 in West 3.5 mph 0.5 mph 60% 0 in 0.00 W/m2
20:29 86.8 °F 71.2 °F 29.83 in West 4.6 mph 2.4 mph 60% 0 in 0.00 W/m2
20:34 86.6 °F 71.5 °F 29.83 in NW 3.5 mph 1.7 mph 61% 0 in 0.00 W/m2
20:39 86.3 °F 70.8 °F 29.83 in SW 6.9 mph 2.6 mph 60% 0 in 0.00 W/m2
20:44 86.1 °F 70.1 °F 29.83 in West 5.8 mph 4.3 mph 59% 0 in 0.00 W/m2
20:49 85.9 °F 70.4 °F 29.83 in West 4.6 mph 3.1 mph 60% 0 in 0.00 W/m2
20:54 85.7 °F 70.2 °F 29.84 in WNW 4.6 mph 3.2 mph 60% 0 in 0.00 W/m2
20:59 85.4 °F 70.4 °F 29.84 in NW 4.6 mph 1.7 mph 61% 0 in 0.00 W/m2
21:04 85 °F 70 °F 29.84 in NW 3.5 mph 1.9 mph 61% 0 in 0.00 W/m2
21:09 84.7 °F 70.2 °F 29.84 in West 3.5 mph 0.7 mph 62% 0 in 0.00 W/m2
21:14 84.2 °F 69.8 °F 29.84 in WNW 3.5 mph 3.1 mph 62% 0 in 0.00 W/m2
21:19 84 °F 68.1 °F 29.84 in NNW 3.5 mph 1.6 mph 59% 0 in 0.00 W/m2
21:24 83.8 °F 67.4 °F 29.84 in WNW 5.8 mph 1.9 mph 58% 0 in 0.00 W/m2
21:29 83.8 °F 66.4 °F 29.84 in WNW 6.9 mph 1.7 mph 56% 0 in 0.00 W/m2
21:34 83.7 °F 66.3 °F 29.84 in WNW 4.6 mph 2.3 mph 56% 0 in 0.00 W/m2
21:39 83.5 °F 65.6 °F 29.85 in West 9.2 mph 5 mph 55% 0 in 0.00 W/m2
21:44 83.4 °F 65 °F 29.85 in WNW 10.4 mph 3.9 mph 54% 0 in 0.00 W/m2
21:49 83.3 °F 64.9 °F 29.85 in West 6.9 mph 3.8 mph 54% 0 in 0.00 W/m2
21:54 83 °F 65.2 °F 29.85 in WNW 4 mph 2.6 mph 55% 0 in 0.00 W/m2
21:59 82.7 °F 64.9 °F 29.85 in NW 3.5 mph 2.6 mph 55% 0 in 0.00 W/m2
22:04 82.4 °F 65.1 °F 29.85 in WSW 6 mph 2.8 mph 56% 0 in 0.00 W/m2
22:09 82.1 °F 64.8 °F 29.85 in NW 5.8 mph 2.4 mph 56% 0 in 0.00 W/m2
22:14 82 °F 64.8 °F 29.85 in WNW 8.1 mph 3.3 mph 56% 0 in 0.00 W/m2
22:19 82 °F 64.8 °F 29.85 in WNW 5.8 mph 2.2 mph 56% 0 in 0.00 W/m2
22:24 81.8 °F 64.6 °F 29.85 in NW 10.4 mph 3.4 mph 56% 0 in 0.00 W/m2
22:29 81.7 °F 65 °F 29.85 in NW 6.9 mph 1.8 mph 57% 0 in 0.00 W/m2
22:34 81.6 °F 64.9 °F 29.85 in NW 10.4 mph 4.9 mph 57% 0 in 0.00 W/m2
22:39 81.4 °F 64.7 °F 29.85 in NW 5 mph 3.4 mph 57% 0 in 0.00 W/m2
22:44 81.2 °F 64.5 °F 29.85 in WNW 7 mph 5.4 mph 57% 0 in 0.00 W/m2
22:49 81.1 °F 64.4 °F 29.85 in WNW 11.5 mph 5.6 mph 57% 0 in 0.00 W/m2
22:54 80.9 °F 64.7 °F 29.85 in West 5.8 mph 5 mph 58% 0 in 0.00 W/m2
22:59 80.7 °F 64.5 °F 29.85 in NW 8.1 mph 5.3 mph 58% 0 in 0.00 W/m2
23:04 80.4 °F 64.8 °F 29.85 in WNW 10.4 mph 4.6 mph 59% 0 in 0.00 W/m2
23:09 80.1 °F 64.5 °F 29.85 in NW 8.1 mph 5.6 mph 59% 0 in 0.00 W/m2
23:14 79.9 °F 64.8 °F 29.85 in NW 5.8 mph 2.7 mph 60% 0 in 0.00 W/m2
23:19 79.6 °F 64.5 °F 29.85 in West 8 mph 3.5 mph 60% 0 in 0.00 W/m2
23:24 79.4 °F 64.3 °F 29.85 in NW 9.2 mph 4.4 mph 60% 0 in 0.00 W/m2
23:29 79.2 °F 64.6 °F 29.85 in NW 4.6 mph 3.2 mph 61% 0 in 0.00 W/m2
23:34 78.9 °F 64.3 °F 29.85 in NNW 6 mph 4 mph 61% 0 in 0.00 W/m2
23:39 78.7 °F 64.6 °F 29.86 in NW 5.8 mph 3.2 mph 62% 0 in 0.00 W/m2
23:44 78.5 °F 64.4 °F 29.85 in NW 4.6 mph 3.7 mph 62% 0 in 0.00 W/m2
23:49 78.3 °F 64.7 °F 29.85 in WNW 5.8 mph 2.6 mph 63% 0 in 0.00 W/m2
23:54 78.1 °F 64.5 °F 29.85 in WNW 6 mph 3.1 mph 63% 0 in 0.00 W/m2
23:59 78 °F 64.4 °F 29.85 in NW 5.8 mph 2.6 mph 63% 0 in 0.00 W/m2
Bourbonnais, Illinois, USA
Compliments of Weather Underground - 4 mb